Portland, OR (97205)

2:49 AM PDT on May 26, 2015 (GMT -0700)
Westerly, NW Portland | | Change Station
CLOSE
Current Station
Personal Weather Station
Location: Portland, OR
Elevation: 223 ft
Nearby Weather Stations

Elev 223 ft 45.52 °N, 122.70 °W | Updated 9 minutes ago

Overcast
Overcast
54.2 °F
Feels Like 54.2 °F
N
0.0
Wind Variable Wind from NE

Today
High -- | Low -- °F
--% Chance of Precip.
Yesterday
High -- | Low -- °F
Precip. -- in
5:29 AM 8:46 PM
First Quarter, 56% visible
Pressure 30.03 in
Visibility 10.0 miles
Clouds Overcast 3600 ft
Dew Point 49 °F
Humidity 83%
Rainfall 0.00 in
Snow Depth Not available.
UV 0 out of 12
Pollen 7.30 out of 12
Air Quality Not available.
Flu Activity No Activity
METAR KPDX 260853Z 30005KT 10SM OVC036 13/09 A3003 RMK AO2 SLP169 T01280094 58001

More Conditions Fewer Conditions

Pressure 30.03 in
Visibility 10.0 miles
Clouds Overcast 3600 ft
Dew Point 49 °F
Humidity 83%
Rainfall 0.00 in
Snow Depth Not available.
UV 0 out of 12
Pollen 7.30 out of 12
Air Quality Not available.
Flu Activity No Activity
METAR KPDX 260853Z 30005KT 10SM OVC036 13/09 A3003 RMK AO2 SLP169 T01280094 58001

More Conditions Fewer Conditions

10-Day Weather Forecast

Almanac

Astronomy

May. 26, 2015 Rise Set
Actual Time
Civil Twilight
Nautical Twilight
Astronomical Twilight
Moon
Length of Visible Light
Length of Day
Tomorrow will be .
, % of the Moon is Illuminated

Today's Extremes

State Highs State Lows

Community

WunderPhotos

Upload Photos

1,824,302 photos uploaded!

WunderBlogs® & News

Nearby

Air Quality

  Air Quality AQ Index Pollutant
Not available.

Snow Depth

Station Depth Elevation

Earthquake Activity

City Distance Mag. Time & Date
Minimum magnitude displayed is 2.5.

Coastal Water Temperatures

Place Temperature

Stations

Nearby Weather Stations

Station Location Temp. Windchill Dew Point Humidity Wind Precip. Elev Updated Type